createdAt,value
2019-03-04T00:01:04.851Z,4.00
2019-03-04T00:03:36.633Z,3.93
2019-03-04T00:06:07.941Z,4.33
2019-03-04T00:08:39.881Z,4.23
2019-03-04T00:11:11.157Z,4.03
2019-03-04T00:13:42.418Z,4.40
2019-03-04T00:16:14.407Z,4.07
2019-03-04T00:18:45.945Z,3.97
2019-03-04T00:21:17.505Z,4.23
2019-03-04T00:23:49.151Z,4.08
2019-03-04T00:26:20.436Z,4.17
2019-03-04T00:28:52.264Z,4.70
2019-03-04T00:31:23.562Z,3.50
2019-03-04T00:33:55.375Z,4.50
2019-03-04T00:36:26.656Z,3.85
2019-03-04T00:38:57.928Z,3.97
2019-03-04T00:41:29.172Z,3.47
2019-03-04T00:44:00.418Z,3.10
2019-03-04T00:46:32.053Z,3.33
2019-03-04T00:49:03.707Z,4.20
2019-03-04T00:51:34.974Z,3.67
2019-03-04T00:54:06.263Z,3.33
2019-03-04T00:56:37.784Z,3.20
2019-03-04T00:59:09.232Z,3.10
2019-03-04T01:01:40.883Z,3.40
2019-03-04T01:04:12.576Z,3.00
2019-03-04T01:06:43.785Z,3.63
2019-03-04T01:09:16.344Z,3.23
2019-03-04T01:11:48.057Z,4.83
2019-03-04T01:14:19.316Z,3.30
2019-03-04T01:16:50.653Z,3.00
2019-03-04T01:19:21.875Z,3.25
2019-03-04T01:21:53.192Z,3.30
2019-03-04T01:24:24.762Z,3.57
2019-03-04T01:26:56.355Z,3.80
2019-03-04T01:29:27.913Z,3.30
2019-03-04T01:31:59.520Z,3.30
2019-03-04T01:34:30.755Z,3.57
2019-03-04T01:37:02.060Z,3.03
2019-03-04T01:39:33.973Z,3.30
2019-03-04T01:42:05.217Z,3.37
2019-03-04T01:44:37.065Z,3.50
2019-03-04T01:47:08.325Z,3.80
2019-03-04T01:49:39.566Z,3.10
2019-03-04T01:52:10.785Z,3.33
2019-03-04T01:54:42.370Z,3.30
2019-03-04T01:57:13.804Z,3.50
2019-03-04T01:59:45.171Z,3.30
2019-03-04T02:02:16.502Z,3.20
2019-03-04T02:04:48.228Z,3.20
2019-03-04T02:07:20.404Z,3.05
2019-03-04T02:09:51.775Z,3.20
2019-03-04T02:12:23.599Z,3.13
2019-03-04T02:14:55.204Z,2.83
2019-03-04T02:17:27.104Z,3.15
2019-03-04T02:19:58.942Z,3.17
2019-03-04T02:22:30.215Z,3.07
2019-03-04T02:25:01.493Z,3.07
2019-03-04T02:27:33.102Z,3.20
2019-03-04T02:30:06.534Z,2.90
2019-03-04T02:32:39.084Z,2.90
2019-03-04T02:35:10.657Z,2.70
2019-03-04T02:37:41.949Z,2.93
2019-03-04T02:40:14.797Z,2.60
2019-03-04T02:42:46.374Z,2.83
2019-03-04T02:45:19.496Z,2.90
2019-03-04T02:47:50.968Z,2.50
2019-03-04T02:50:23.301Z,2.80
2019-03-04T02:52:54.834Z,2.90
2019-03-04T02:55:26.425Z,2.58
2019-03-04T02:57:58.071Z,2.80
2019-03-04T03:00:29.387Z,2.23
2019-03-04T03:03:01.495Z,2.80
2019-03-04T03:05:32.795Z,2.50
2019-03-04T03:08:04.175Z,2.90
2019-03-04T03:10:35.511Z,2.63
2019-03-04T03:13:06.768Z,2.60
2019-03-04T03:15:38.041Z,2.27
2019-03-04T03:18:09.341Z,3.23
2019-03-04T03:20:40.684Z,2.50
2019-03-04T03:23:11.958Z,2.40
2019-03-04T03:25:43.362Z,1.93
2019-03-04T03:28:14.906Z,2.20
2019-03-04T03:30:46.162Z,2.13
2019-03-04T03:33:17.508Z,2.03
2019-03-04T03:35:49.191Z,2.43
2019-03-04T03:38:20.417Z,2.10
2019-03-04T03:40:51.685Z,2.23
2019-03-04T03:43:22.916Z,2.10
2019-03-04T03:45:54.113Z,2.20
2019-03-04T03:48:26.222Z,2.27
2019-03-04T03:50:57.745Z,2.22
2019-03-04T03:53:29.247Z,2.20
2019-03-04T03:56:01.060Z,1.87
2019-03-04T03:58:32.425Z,2.08
2019-03-04T04:01:05.086Z,2.00
2019-03-04T04:03:36.455Z,2.13
2019-03-04T04:06:07.694Z,2.20
2019-03-04T04:08:40.895Z,2.20
2019-03-04T04:11:12.211Z,1.70
2019-03-04T04:13:43.459Z,1.90
2019-03-04T04:16:14.713Z,1.97
2019-03-04T04:18:45.996Z,2.00
2019-03-04T04:21:17.483Z,2.10
2019-03-04T04:23:48.761Z,1.63
2019-03-04T04:26:23.183Z,1.97
2019-03-04T04:29:05.953Z,2.00
2019-03-04T04:31:37.586Z,2.27
2019-03-04T04:34:09.258Z,1.95
2019-03-04T04:36:40.906Z,1.90
2019-03-04T04:39:12.391Z,1.73
2019-03-04T04:41:43.591Z,1.60
2019-03-04T04:44:15.210Z,1.90
2019-03-04T04:47:07.616Z,1.87
2019-03-04T04:49:38.880Z,1.60
2019-03-04T04:52:10.448Z,1.50
2019-03-04T04:54:42.288Z,1.63
2019-03-04T04:57:13.908Z,1.70
2019-03-04T04:59:45.495Z,1.55
2019-03-04T05:02:17.058Z,1.57
2019-03-04T05:04:48.394Z,1.37
2019-03-04T05:07:20.111Z,1.40
2019-03-04T05:09:53.487Z,1.20
2019-03-04T05:12:24.631Z,1.20
2019-03-04T05:14:57.455Z,1.37
2019-03-04T05:17:29.059Z,1.40
2019-03-04T05:20:01.267Z,1.23
2019-03-04T05:22:32.625Z,1.30
2019-03-04T05:25:04.192Z,1.42
2019-03-04T05:27:36.174Z,1.32
2019-03-04T05:30:10.505Z,1.50
2019-03-04T05:32:42.449Z,1.40
2019-03-04T05:35:15.625Z,1.70
2019-03-04T05:37:47.329Z,1.30
2019-03-04T05:40:18.934Z,1.67
2019-03-04T05:42:50.222Z,1.37
2019-03-04T05:45:21.607Z,1.57
2019-03-04T05:47:53.144Z,1.10
2019-03-04T05:50:24.423Z,1.23
2019-03-04T05:52:55.703Z,1.30
2019-03-04T05:55:27.405Z,1.20
2019-03-04T05:57:58.925Z,1.40
2019-03-04T06:00:32.078Z,1.40
2019-03-04T06:03:03.482Z,1.30
2019-03-04T06:05:34.709Z,1.30
2019-03-04T06:08:07.107Z,1.40
2019-03-04T06:10:38.653Z,1.20
2019-03-04T06:13:12.755Z,1.30
2019-03-04T06:15:44.047Z,1.30
2019-03-04T06:18:15.399Z,1.37
2019-03-04T06:20:47.166Z,1.15
2019-03-04T06:23:18.508Z,1.20
2019-03-04T06:25:49.848Z,1.00
2019-03-04T06:28:21.476Z,1.60
2019-03-04T06:30:52.775Z,1.37
2019-03-04T06:33:24.663Z,1.50
2019-03-04T06:35:55.908Z,1.10
2019-03-04T06:38:27.833Z,1.10
2019-03-04T06:40:59.213Z,1.23
2019-03-04T06:43:30.938Z,1.20
2019-03-04T06:46:02.252Z,1.27
2019-03-04T06:48:33.907Z,1.00
2019-03-04T06:51:07.994Z,1.33
2019-03-04T06:54:46.381Z,1.77
2019-03-04T06:57:28.611Z,1.20
2019-03-04T07:00:37.153Z,1.30
2019-03-04T07:03:23.297Z,1.50
2019-03-04T07:05:55.638Z,1.17
2019-03-04T07:09:16.347Z,1.20
2019-03-04T07:11:54.738Z,1.30
2019-03-04T07:14:26.898Z,1.33
2019-03-04T07:16:58.286Z,1.30
2019-03-04T07:19:35.350Z,1.43
2019-03-04T07:22:06.982Z,1.20
2019-03-04T07:24:38.290Z,1.17
2019-03-04T07:27:09.531Z,1.00
2019-03-04T07:29:40.895Z,1.17
2019-03-04T07:32:13.058Z,1.52
2019-03-04T07:34:44.377Z,1.27
2019-03-04T07:37:15.650Z,1.20
2019-03-04T07:39:46.845Z,1.53
2019-03-04T07:42:18.505Z,1.30
2019-03-04T07:44:49.793Z,1.12
2019-03-04T07:47:21.535Z,1.10
2019-03-04T07:49:53.526Z,1.40
2019-03-04T07:52:25.822Z,1.53
2019-03-04T07:54:57.351Z,1.40
2019-03-04T07:57:29.082Z,1.30
2019-03-04T08:00:00.820Z,1.00
2019-03-04T08:02:32.338Z,1.30
2019-03-04T08:05:03.723Z,1.10
2019-03-04T08:07:46.927Z,1.30
2019-03-04T08:11:39.110Z,1.50
2019-03-04T08:14:10.777Z,1.40
2019-03-04T08:16:42.951Z,1.27
2019-03-04T08:19:14.890Z,1.57
2019-03-04T08:21:46.162Z,1.30
2019-03-04T08:24:17.767Z,1.30
2019-03-04T08:26:49.652Z,1.33
2019-03-04T08:29:21.510Z,2.52
2019-03-04T08:31:52.980Z,1.80
2019-03-04T08:34:30.997Z,1.42
2019-03-04T08:36:57.429Z,1.37
2019-03-04T08:39:28.977Z,1.37
2019-03-04T08:42:00.299Z,1.85
2019-03-04T08:44:33.363Z,1.67
2019-03-04T08:47:05.246Z,1.40
2019-03-04T08:49:36.725Z,1.55
2019-03-04T08:52:08.274Z,1.50
2019-03-04T08:54:39.551Z,1.40
2019-03-04T08:57:10.809Z,1.47
2019-03-04T09:06:07.080Z,1.40
2019-03-04T09:08:38.765Z,0.73
2019-03-04T09:11:10.784Z,0.63
2019-03-04T09:13:42.813Z,0.43
2019-03-04T09:16:14.222Z,0.78
2019-03-04T09:18:45.830Z,0.63
2019-03-04T09:21:17.193Z,0.50
2019-03-04T09:23:50.148Z,0.50
2019-03-04T09:26:21.559Z,0.60
2019-03-04T09:28:53.327Z,0.50
2019-03-04T09:31:24.999Z,0.40
2019-03-04T09:33:57.465Z,0.50
2019-03-04T09:36:28.773Z,0.30
2019-03-04T09:39:02.902Z,0.30
2019-03-04T09:41:34.840Z,0.27
2019-03-04T09:44:06.150Z,0.40
2019-03-04T09:46:40.343Z,0.30
2019-03-04T09:49:11.594Z,0.40
2019-03-04T09:51:42.852Z,0.20
2019-03-04T09:54:14.143Z,0.40
2019-03-04T09:56:45.802Z,0.57
2019-03-04T09:59:17.079Z,0.30
2019-03-04T10:02:05.282Z,0.37
2019-03-04T10:05:34.750Z,0.20
2019-03-04T10:09:05.653Z,0.37
2019-03-04T10:12:10.453Z,0.30
2019-03-04T10:15:39.599Z,0.30
2019-03-04T10:19:05.273Z,0.20
2019-03-04T10:22:03.052Z,0.40
2019-03-04T10:25:17.275Z,0.30
2019-03-04T10:29:11.788Z,0.30
2019-03-04T10:32:37.774Z,0.50
2019-03-04T10:36:01.420Z,0.30
2019-03-04T10:39:09.967Z,0.50
2019-03-04T10:42:32.098Z,0.30
2019-03-04T10:45:49.522Z,0.60
2019-03-04T10:48:21.027Z,0.53
2019-03-04T10:50:52.726Z,0.70
2019-03-04T10:53:24.207Z,0.50
2019-03-04T10:55:55.470Z,0.60
2019-03-04T10:58:27.197Z,0.50
2019-03-04T11:00:59.963Z,0.40
2019-03-04T11:03:31.889Z,0.50
2019-03-04T11:06:03.133Z,0.50
2019-03-04T11:08:34.835Z,0.50
2019-03-04T11:11:06.525Z,0.50
2019-03-04T11:13:37.778Z,0.50
2019-03-04T11:16:09.337Z,0.60
2019-03-04T11:18:40.836Z,0.70
2019-03-04T11:21:12.405Z,0.50
2019-03-04T11:23:43.683Z,0.50
2019-03-04T11:26:15.052Z,0.57
2019-03-04T11:28:46.350Z,0.40
2019-03-04T11:31:17.652Z,0.60
2019-03-04T11:33:49.252Z,0.53
2019-03-04T11:36:23.333Z,0.60
2019-03-04T11:39:00.125Z,0.50
2019-03-04T11:41:31.397Z,0.50
2019-03-04T11:44:02.602Z,0.50
2019-03-04T11:46:34.318Z,0.60
2019-03-04T11:49:05.566Z,0.67
2019-03-04T11:51:37.131Z,0.60
2019-03-04T11:54:08.994Z,0.90
2019-03-04T11:56:40.248Z,0.83
2019-03-04T11:59:11.483Z,0.80
2019-03-04T12:01:46.236Z,0.50
2019-03-04T12:04:18.176Z,0.63
2019-03-04T12:06:49.528Z,0.70
2019-03-04T12:09:22.221Z,0.68
2019-03-04T12:11:53.474Z,0.67
2019-03-04T12:14:25.040Z,0.60
2019-03-04T12:16:56.318Z,0.70
2019-03-04T12:19:28.869Z,0.60
2019-03-04T12:22:01.960Z,0.60
2019-03-04T12:24:34.540Z,0.57
2019-03-04T12:27:06.439Z,0.70
2019-03-04T12:29:38.024Z,0.60
2019-03-04T12:32:20.667Z,0.43
2019-03-04T12:34:53.073Z,0.40
2019-03-04T12:37:24.327Z,0.50
2019-03-04T12:39:55.893Z,0.40
2019-03-04T12:42:27.190Z,0.20
2019-03-04T12:44:58.809Z,0.50
2019-03-04T12:47:30.057Z,0.60
2019-03-04T12:50:02.031Z,0.43
2019-03-04T12:52:33.324Z,0.40
2019-03-04T12:55:05.813Z,0.60
2019-03-04T12:57:37.566Z,0.60
2019-03-04T13:00:13.877Z,0.40
2019-03-04T13:02:45.939Z,0.40
2019-03-04T13:05:17.885Z,0.70
2019-03-04T13:07:49.213Z,0.37
2019-03-04T13:10:22.361Z,0.40
2019-03-04T13:12:53.713Z,0.40
2019-03-04T13:15:25.775Z,0.40
2019-03-04T13:17:58.049Z,0.40
2019-03-04T13:20:29.738Z,0.50
2019-03-04T13:23:01.647Z,0.47
2019-03-04T13:25:33.471Z,0.37
2019-03-04T13:28:08.360Z,0.50
2019-03-04T13:30:38.592Z,0.40
2019-03-04T13:33:10.480Z,0.43
2019-03-04T13:35:41.801Z,0.40
2019-03-04T13:38:13.926Z,0.53
2019-03-04T13:40:45.256Z,0.53
2019-03-04T13:43:16.923Z,0.40
2019-03-04T13:45:48.252Z,0.80
2019-03-04T13:48:19.485Z,0.33
2019-03-04T13:50:51.321Z,0.40
2019-03-04T13:53:22.506Z,2.80
2019-03-04T13:55:53.974Z,4.73
2019-03-04T13:58:25.495Z,2.50
2019-03-04T14:00:56.672Z,1.27
2019-03-04T14:03:28.384Z,1.00
2019-03-04T14:06:00.728Z,0.57
2019-03-04T14:08:32.054Z,0.50
2019-03-04T14:11:04.358Z,0.30
2019-03-04T14:13:36.277Z,0.30
2019-03-04T14:16:08.217Z,1.00
2019-03-04T14:18:39.474Z,0.30
2019-03-04T14:21:13.883Z,0.20
2019-03-04T14:23:47.226Z,0.23
2019-03-04T14:26:18.695Z,0.20
2019-03-04T14:28:50.615Z,1.40
2019-03-04T14:31:21.853Z,0.20
2019-03-04T14:33:54.211Z,0.30
2019-03-04T14:36:25.440Z,0.40
2019-03-04T14:38:56.980Z,0.43
2019-03-04T14:41:28.273Z,0.80
2019-03-04T14:43:59.547Z,0.50
2019-03-04T14:46:30.812Z,0.57
2019-03-04T14:49:02.085Z,0.60
2019-03-04T14:51:34.230Z,0.60
2019-03-04T14:54:05.695Z,0.73
2019-03-04T14:56:37.602Z,0.65
2019-03-04T14:59:10.943Z,0.68
2019-03-04T15:01:41.740Z,0.60
2019-03-04T15:04:13.007Z,0.90
2019-03-04T15:06:46.140Z,0.77
2019-03-04T15:09:17.739Z,0.80
2019-03-04T15:11:50.961Z,0.97
2019-03-04T15:14:22.271Z,0.70
2019-03-04T15:17:03.053Z,1.30
2019-03-04T15:19:28.891Z,1.00
2019-03-04T15:22:00.484Z,1.00
2019-03-04T15:24:32.067Z,1.00
2019-03-04T15:27:04.547Z,1.13
2019-03-04T15:29:36.128Z,1.07
2019-03-04T15:32:07.556Z,1.47
2019-03-04T15:34:38.844Z,1.10
2019-03-04T15:37:10.424Z,1.40
2019-03-04T15:39:41.717Z,1.30
2019-03-04T15:42:13.631Z,1.07
2019-03-04T15:44:45.271Z,1.20
2019-03-04T15:47:16.906Z,1.30
2019-03-04T15:49:48.523Z,1.30
2019-03-04T15:52:19.942Z,1.50
2019-03-04T15:54:51.173Z,1.42
2019-03-04T15:57:22.735Z,1.40
2019-03-04T15:59:54.003Z,1.10
2019-03-04T16:02:25.895Z,1.30
2019-03-04T16:04:57.812Z,1.40
2019-03-04T16:07:29.100Z,1.40
2019-03-04T16:10:00.409Z,1.45
2019-03-04T16:12:32.399Z,1.10
2019-03-04T16:15:03.944Z,2.03
2019-03-04T16:17:35.181Z,1.87
2019-03-04T16:20:15.745Z,1.30
2019-03-04T16:22:40.646Z,1.35
2019-03-04T16:25:12.361Z,1.30
2019-03-04T16:27:43.609Z,1.30
2019-03-04T16:30:18.419Z,1.30
2019-03-04T16:32:50.404Z,1.57
2019-03-04T16:35:21.764Z,1.80
2019-03-04T16:37:53.728Z,1.40
2019-03-04T16:40:25.200Z,1.23
2019-03-04T16:42:59.645Z,1.50
2019-03-04T16:45:31.322Z,1.30
2019-03-04T16:48:02.497Z,1.50
2019-03-04T16:50:34.461Z,1.47
2019-03-04T16:53:06.131Z,1.83
2019-03-04T16:55:37.501Z,1.70
2019-03-04T16:58:08.739Z,1.90
2019-03-04T17:00:40.216Z,1.30
2019-03-04T17:03:11.857Z,1.73
2019-03-04T17:05:43.517Z,1.30
2019-03-04T17:08:15.112Z,1.57
2019-03-04T17:10:47.006Z,1.30
2019-03-04T17:13:18.687Z,1.60
2019-03-04T17:15:50.565Z,1.60
2019-03-04T17:18:21.747Z,1.77
2019-03-04T17:20:53.442Z,2.40
2019-03-04T17:23:24.717Z,1.30
2019-03-04T17:25:56.603Z,1.60
2019-03-04T17:28:28.516Z,2.03
2019-03-04T17:30:59.714Z,1.90
2019-03-04T17:33:31.519Z,1.70
2019-03-04T17:36:02.833Z,1.67
2019-03-04T17:38:34.731Z,1.67
2019-03-04T17:41:06.583Z,1.67
2019-03-04T17:43:38.061Z,2.13
2019-03-04T17:46:10.236Z,1.43
2019-03-04T17:48:41.809Z,1.72
2019-03-04T17:51:13.221Z,1.90
2019-03-04T17:53:44.447Z,1.80
2019-03-04T17:56:15.728Z,2.07
2019-03-04T17:58:47.378Z,1.63
2019-03-04T18:01:19.641Z,1.65
2019-03-04T18:03:51.330Z,1.93
2019-03-04T18:06:23.094Z,1.90
2019-03-04T18:08:54.689Z,1.42
2019-03-04T18:11:25.969Z,1.80
2019-03-04T18:13:57.353Z,1.70
2019-03-04T18:16:29.382Z,1.30
2019-03-04T18:19:00.964Z,1.70
2019-03-04T18:21:32.709Z,1.40
2019-03-04T18:24:04.069Z,1.50
2019-03-04T18:26:45.566Z,2.00
2019-03-04T18:29:50.611Z,1.60
2019-03-04T18:33:16.342Z,1.37
2019-03-04T18:36:15.763Z,1.77
2019-03-04T18:39:55.561Z,1.50
2019-03-04T18:43:17.105Z,1.80
2019-03-04T18:46:48.684Z,1.53
2019-03-04T18:49:20.046Z,1.50
2019-03-04T18:51:51.428Z,1.45
2019-03-04T18:54:23.953Z,1.90
2019-03-04T18:56:55.545Z,1.40
2019-03-04T18:59:27.281Z,2.00
2019-03-04T19:01:58.531Z,1.50
2019-03-04T19:04:30.222Z,1.80
2019-03-04T19:07:02.095Z,1.40
2019-03-04T19:09:33.747Z,2.10
2019-03-04T19:12:05.092Z,1.30
2019-03-04T19:14:36.840Z,1.70
2019-03-04T19:17:08.249Z,1.40
2019-03-04T19:19:39.936Z,1.92
2019-03-04T19:22:11.609Z,1.47
2019-03-04T19:24:42.872Z,1.67
2019-03-04T19:27:14.473Z,1.47
2019-03-04T19:29:46.559Z,1.50
2019-03-04T19:32:18.344Z,1.47
2019-03-04T19:34:49.633Z,2.00
2019-03-04T19:37:21.647Z,2.03
2019-03-04T19:39:54.077Z,1.57
2019-03-04T19:42:25.459Z,1.53
2019-03-04T19:44:57.364Z,1.80
2019-03-04T19:47:30.295Z,2.00
2019-03-04T19:50:01.645Z,2.15
2019-03-04T19:52:33.217Z,1.90
2019-03-04T19:55:06.113Z,1.77
2019-03-04T19:57:37.592Z,2.17
2019-03-04T20:00:11.848Z,2.07
2019-03-04T20:02:44.508Z,2.17
2019-03-04T20:05:16.322Z,2.27
2019-03-04T20:07:48.272Z,2.33
2019-03-04T20:10:19.923Z,2.60
2019-03-04T20:13:01.472Z,2.30
2019-03-04T20:15:32.885Z,2.03
2019-03-04T20:18:04.099Z,2.10
2019-03-04T20:20:35.604Z,2.17
2019-03-04T20:23:07.258Z,2.17
2019-03-04T20:25:38.905Z,2.22
2019-03-04T20:28:11.898Z,2.00
2019-03-04T20:30:43.224Z,1.97
2019-03-04T20:33:14.438Z,2.30
2019-03-04T20:35:46.124Z,2.10
2019-03-04T20:38:17.773Z,2.30
2019-03-04T20:40:51.150Z,2.20
2019-03-04T20:43:22.499Z,2.60
2019-03-04T20:45:54.052Z,2.27
2019-03-04T20:48:25.380Z,2.20
2019-03-04T20:50:57.285Z,2.20
2019-03-04T20:53:28.557Z,2.00
2019-03-04T20:56:00.636Z,2.40
2019-03-04T20:58:32.105Z,2.10
2019-03-04T21:01:07.507Z,1.97
2019-03-04T21:03:38.946Z,2.30
2019-03-04T21:06:11.488Z,2.77
2019-03-04T21:08:44.810Z,2.53
2019-03-04T21:11:19.073Z,2.17
2019-03-04T21:13:51.078Z,3.07
2019-03-04T21:16:22.715Z,2.37
2019-03-04T21:18:55.391Z,2.50
2019-03-04T21:21:26.743Z,3.23
2019-03-04T21:23:58.416Z,2.97
2019-03-04T21:26:40.600Z,2.92
2019-03-04T21:30:33.312Z,2.80
2019-03-04T21:33:40.356Z,2.83
2019-03-04T21:37:05.944Z,2.65
2019-03-04T21:39:37.802Z,2.65
2019-03-04T21:42:21.042Z,2.40
2019-03-04T21:45:39.729Z,3.03
2019-03-04T21:48:30.659Z,2.70
2019-03-04T21:51:18.096Z,2.67
2019-03-04T21:53:50.340Z,2.58
2019-03-04T21:57:17.671Z,3.33
2019-03-04T21:59:48.985Z,3.07
2019-03-04T22:02:39.421Z,2.80
2019-03-04T22:05:14.458Z,2.20
2019-03-04T22:07:45.911Z,2.47
2019-03-04T22:10:17.702Z,2.33
2019-03-04T22:12:49.464Z,2.70
2019-03-04T22:15:20.913Z,2.90
2019-03-04T22:17:52.690Z,2.50
2019-03-04T22:20:24.071Z,2.47
2019-03-04T22:22:55.491Z,2.03
2019-03-04T22:25:26.962Z,2.53
2019-03-04T22:27:58.627Z,2.23
2019-03-04T22:30:29.948Z,2.40
2019-03-04T22:33:02.130Z,2.90
2019-03-04T22:35:33.498Z,2.30
2019-03-04T22:38:05.069Z,2.53
2019-03-04T22:40:36.376Z,2.40
2019-03-04T22:43:07.684Z,2.60
2019-03-04T22:45:39.199Z,2.80
2019-03-04T22:48:11.424Z,2.50
2019-03-04T22:50:42.756Z,2.70
2019-03-04T22:53:14.283Z,2.53
2019-03-04T22:55:45.656Z,3.00
2019-03-04T22:58:27.818Z,2.93
2019-03-04T23:01:36.265Z,2.77
2019-03-04T23:04:51.313Z,2.80
2019-03-04T23:07:35.581Z,2.43
2019-03-04T23:10:35.701Z,3.10
2019-03-04T23:13:45.834Z,2.80
2019-03-04T23:16:24.425Z,3.50
2019-03-04T23:18:56.706Z,2.73
2019-03-04T23:21:28.732Z,3.08
2019-03-04T23:24:00.254Z,2.80
2019-03-04T23:26:32.187Z,3.00
2019-03-04T23:29:03.505Z,2.80
2019-03-04T23:31:34.887Z,2.67
2019-03-04T23:34:07.001Z,2.57
2019-03-04T23:36:38.917Z,3.10
2019-03-04T23:39:10.885Z,2.77
2019-03-04T23:41:42.066Z,3.47
2019-03-04T23:44:13.582Z,2.47
2019-03-04T23:46:45.037Z,2.42
2019-03-04T23:49:16.247Z,2.43
2019-03-04T23:51:47.734Z,2.10
2019-03-04T23:54:19.122Z,2.47
2019-03-04T23:56:50.383Z,2.30
2019-03-04T23:59:21.911Z,2.30
